Lavalle, Argentina
Current Conditions -  °F | °C
As of 6:00 PM on Sunday 23 Nov 2014 (Local Time) from SARE Reporting Station
Clear Clear  
Wind Chill: 86°   Ceiling: Unl
Heat Index: 86°   Visibility: 6mi
Dew Point: 55°   Wind: 9mph
Humidity: 35%   Direction: 50°NE
Pressure: 29.77"   Gusts: NA
Location:  29.02°S, 59.18°W
Report Text: SARE 232100Z 05008KT CAVOK 30/13 Q1008
Loading
Personal Weather Stations






























Interactive Weather Map New forecast layout! Learn more

10-Day Weather Forecast

Advertisements
Track Severe Weather on mobile